Storm Events Database

Event Details

Event Flash Flood
-- Flood Cause Heavy Rain
State OKLAHOMA
County/Area MCCLAIN
WFO OUN
Report Source Law Enforcement
NCDC Data Source CSV
Begin Date 2007-07-10 04:00:00.0 CST-6
Begin Location 0E COLE
Begin Lat/Lon 35.1/-97.58
End Date 2007-07-10 05:45:00.0 CST-6
Deaths Direct/Indirect 0/0 (fatality details below, when available...)
Injuries Direct/Indirect 0/0
Property Damage 0.00K
Crop Damage 0.00K
Episode Narrative A boundary moved southeast into Oklahoma during the afternoon hours of the 9th. An upper level wave accompanied this front, and combined with afternoon heating helping severe thunderstorms to develop during the afternoon and overnight hours. Thunderstorms also developed on the many outflow boundaries that were created throughout the event. Hail, high winds and flash flooding were reported.
Event Narrative State Highway 74B at Pennsylvania Avenue was closed due to high water.


     ‚Äč



All events for this episode:

Location County/Zone St. Date Time T.Z. Type Mag Dth Inj PrD CrD
Totals: 0 0 547.50K 0.00K
NILES CANADIAN CO. OK 07/09/2007 12:01 CST-6 Hail 1.75 in. 0 0 0.00K 0.00K
HINTON CADDO CO. OK 07/09/2007 15:10 CST-6 Thunderstorm Wind 61 kts. EG 0 0 0.00K 0.00K
HINTON CADDO CO. OK 07/09/2007 15:15 CST-6 Hail 1.00 in. 0 0 0.00K 0.00K
HINTON RED ROCK ARPT CADDO CO. OK 07/09/2007 15:40 CST-6 Hail 1.50 in. 0 0 0.00K 0.00K
NILES CANADIAN CO. OK 07/09/2007 15:40 CST-6 Hail 1.00 in. 0 0 0.00K 0.00K
NILES CANADIAN CO. OK 07/09/2007 15:50 CST-6 Hail 1.75 in. 0 0 0.00K 0.00K
SPARKS LINCOLN CO. OK 07/09/2007 16:25 CST-6 Hail 0.88 in. 0 0 0.00K 0.00K
SPARKS LINCOLN CO. OK 07/09/2007 16:35 CST-6 Hail 1.00 in. 0 0 0.00K 0.00K
SPARKS LINCOLN CO. OK 07/09/2007 16:35 CST-6 Thunderstorm Wind 52 kts. EG 0 0 0.00K 0.00K
SPARKS LINCOLN CO. OK 07/09/2007 16:40 CST-6 Hail 1.00 in. 0 0 0.00K 0.00K
SPARKS LINCOLN CO. OK 07/09/2007 16:45 CST-6 Hail 1.25 in. 0 0 0.00K 0.00K
OKLAHOMA CITY OKLAHOMA CO. OK 07/09/2007 16:56 CST-6 Thunderstorm Wind 52 kts. EG 0 0 0.00K 0.00K
OKLAHOMA CITY OKLAHOMA CO. OK 07/09/2007 17:05 CST-6 Thunderstorm Wind 52 kts. EG 0 0 6.00K 0.00K
SEMINOLE SEMINOLE CO. OK 07/09/2007 17:05 CST-6 Hail 0.75 in. 0 0 0.00K 0.00K
NORMAN CLEVELAND CO. OK 07/09/2007 17:33 CST-6 Hail 0.75 in. 0 0 0.00K 0.00K
NORMAN CLEVELAND CO. OK 07/09/2007 17:35 CST-6 Thunderstorm Wind 56 kts. EG 0 0 0.00K 0.00K
NORMAN CLEVELAND CO. OK 07/09/2007 17:40 CST-6 Thunderstorm Wind 51 kts. MG 0 0 0.00K 0.00K
NORMAN CLEVELAND CO. OK 07/09/2007 17:45 CST-6 Thunderstorm Wind 59 kts. MG 0 0 0.00K 0.00K
NORMAN CLEVELAND CO. OK 07/09/2007 17:46 CST-6 Hail 0.88 in. 0 0 0.00K 0.00K
NORMAN CLEVELAND CO. OK 07/09/2007 17:48 CST-6 Thunderstorm Wind 57 kts. MG 0 0 0.00K 0.00K
NORMAN CLEVELAND CO. OK 07/09/2007 17:48 CST-6 Thunderstorm Wind 52 kts. EG 0 0 12.00K 0.00K
GOLDSBY MCCLAIN CO. OK 07/09/2007 17:52 CST-6 Thunderstorm Wind 52 kts. EG 0 0 1.50K 0.00K
NOBLE CLEVELAND CO. OK 07/09/2007 17:55 CST-6 Thunderstorm Wind 52 kts. EG 0 0 3.50K 0.00K
WASHINGTON MCCLAIN CO. OK 07/09/2007 18:04 CST-6 Thunderstorm Wind 52 kts. EG 0 0 0.00K 0.00K
PUTNAM DEWEY CO. OK 07/09/2007 18:10 CST-6 Hail 1.75 in. 0 0 0.00K 0.00K
PINK POTTAWATOMIE CO. OK 07/09/2007 18:15 CST-6 Thunderstorm Wind 61 kts. MG 0 0 0.00K 0.00K
SLAUGHTERVILLE CLEVELAND CO. OK 07/09/2007 18:20 CST-6 Hail 0.75 in. 0 0 0.00K 0.00K
LEXINGTON CLEVELAND CO. OK 07/09/2007 18:30 CST-6 Hail 0.75 in. 0 0 0.00K 0.00K
WEWOKA SEMINOLE CO. OK 07/09/2007 18:30 CST-6 Flash Flood 0 0 0.00K 0.00K
PUTNAM DEWEY CO. OK 07/09/2007 18:45 CST-6 Thunderstorm Wind 52 kts. EG 0 0 0.00K 0.00K
PUTNAM DEWEY CO. OK 07/09/2007 18:45 CST-6 Hail 1.00 in. 0 0 0.00K 0.00K
HOLDENVILLE HUGHES CO. OK 07/09/2007 19:00 CST-6 Flash Flood 0 0 0.00K 0.00K
THOMAS CUSTER CO. OK 07/09/2007 19:00 CST-6 Hail 0.75 in. 0 0 0.00K 0.00K
ATOKA ATOKA CO. OK 07/09/2007 20:15 CST-6 Thunderstorm Wind 52 kts. EG 0 0 20.00K 0.00K
CANEY ATOKA CO. OK 07/09/2007 20:20 CST-6 Thunderstorm Wind 52 kts. EG 0 0 4.00K 0.00K
CHICKASHA GRADY CO. OK 07/09/2007 21:29 CST-6 Thunderstorm Wind 56 kts. MG 0 0 60.00K 0.00K
UNION CITY CANADIAN CO. OK 07/09/2007 21:36 CST-6 Hail 0.75 in. 0 0 0.00K 0.00K
CHICKASHA GRADY CO. OK 07/09/2007 21:50 CST-6 Thunderstorm Wind 56 kts. MG 0 0 0.00K 0.00K
GUTHRIE LOGAN CO. OK 07/09/2007 22:15 CST-6 Thunderstorm Wind 52 kts. EG 0 0 1.50K 0.00K
PAULS VALLEY GARVIN CO. OK 07/09/2007 23:45 CST-6 Thunderstorm Wind 56 kts. EG 0 0 1.50K 0.00K
ELMORE CITY GARVIN CO. OK 07/10/2007 00:00 CST-6 Hail 0.75 in. 0 0 0.00K 0.00K
PAYNE MCCLAIN CO. OK 07/10/2007 02:15 CST-6 Hail 0.88 in. 0 0 0.00K 0.00K
PURCELL MCCLAIN CO. OK 07/10/2007 02:40 CST-6 Thunderstorm Wind 52 kts. EG 0 0 10.00K 0.00K
BLANCHARD MCCLAIN CO. OK 07/10/2007 03:00 CST-6 Heavy Rain 0 0 0.00K 0.00K
NEWCASTLE MCCLAIN CO. OK 07/10/2007 03:00 CST-6 Flash Flood 0 0 10.00K 0.00K
OKLAHOMA CITY OKLAHOMA CO. OK 07/10/2007 03:30 CST-6 Flash Flood 0 0 0.00K 0.00K
TUTTLE GRADY CO. OK 07/10/2007 03:30 CST-6 Flash Flood 0 0 0.00K 0.00K
NORMAN CLEVELAND CO. OK 07/10/2007 03:35 CST-6 Flash Flood 0 0 15.00K 0.00K
SPRINGER CARTER CO. OK 07/10/2007 03:45 CST-6 Thunderstorm Wind 52 kts. EG 0 0 2.50K 0.00K
PAULS VALLEY GARVIN CO. OK 07/10/2007 03:50 CST-6 Flash Flood 0 0 0.00K 0.00K
COLE MCCLAIN CO. OK 07/10/2007 04:00 CST-6 Flash Flood 0 0 0.00K 0.00K
PURCELL MCCLAIN CO. OK 07/10/2007 04:00 CST-6 Flash Flood 0 0 400.00K 0.00K
SHAWNEE POTTAWATOMIE CO. OK 07/10/2007 04:00 CST-6 Flash Flood 0 0 0.00K 0.00K
TURNER FALLS PARK MURRAY CO. OK 07/10/2007 04:00 CST-6 Flash Flood 0 0 0.00K 0.00K
YUKON CANADIAN CO. OK 07/10/2007 04:00 CST-6 Flash Flood 0 0 0.00K 0.00K
WYNNEWOOD GARVIN CO. OK 07/10/2007 04:30 CST-6 Flash Flood 0 0 0.00K 0.00K
OKLAHOMA CITY OKLAHOMA CO. OK 07/10/2007 05:24 CST-6 Hail 0.75 in. 0 0 0.00K 0.00K
EDMOND OKLAHOMA CO. OK 07/10/2007 05:30 CST-6 Heavy Rain 0 0 0.00K 0.00K
ADA PONTOTOC CO. OK 07/10/2007 06:00 CST-6 Flash Flood 0 0 0.00K 0.00K
ADA PONTOTOC CO. OK 07/10/2007 06:00 CST-6 Flash Flood 0 0 0.00K 0.00K
FITTSTOWN PONTOTOC CO. OK 07/10/2007 06:00 CST-6 Flash Flood 0 0 0.00K 0.00K
Totals: 0 0 547.50K 0.00K